地図

経路データ

SID SEASON NUMBER BASIN SUBBASIN NAME ISO_TIME NATURE LAT LON WMO_WIND WMO_PRES WMO_AGENCY TRACK_TYPE DIST2LAND LANDFALL IFLAG USA_AGENCY USA_ATCF_ID USA_LAT USA_LON USA_RECORD USA_STATUS USA_WIND USA_PRES USA_SSHS USA_R34_NE USA_R34_SE USA_R34_SW USA_R34_NW USA_R50_NE USA_R50_SE USA_R50_SW USA_R50_NW USA_R64_NE USA_R64_SE USA_R64_SW USA_R64_NW USA_POCI USA_ROCI USA_RMW USA_EYE TOKYO_LAT TOKYO_LON TOKYO_GRADE TOKYO_WIND TOKYO_PRES TOKYO_R50_DIR TOKYO_R50_LONG TOKYO_R50_SHORT TOKYO_R30_DIR TOKYO_R30_LONG TOKYO_R30_SHORT TOKYO_LAND CMA_LAT CMA_LON CMA_CAT CMA_WIND CMA_PRES HKO_LAT HKO_LON HKO_CAT HKO_WIND HKO_PRES NEWDELHI_LAT NEWDELHI_LON NEWDELHI_GRADE NEWDELHI_WIND NEWDELHI_PRES NEWDELHI_CI NEWDELHI_DP NEWDELHI_POCI REUNION_LAT REUNION_LON REUNION_TYPE REUNION_WIND REUNION_PRES REUNION_TNUM REUNION_CI REUNION_RMW REUNION_R34_NE REUNION_R34_SE REUNION_R34_SW REUNION_R34_NW REUNION_R50_NE REUNION_R50_SE REUNION_R50_SW REUNION_R50_NW REUNION_R64_NE REUNION_R64_SE REUNION_R64_SW REUNION_R64_NW BOM_LAT BOM_LON BOM_TYPE BOM_WIND BOM_PRES BOM_TNUM BOM_CI BOM_RMW BOM_R34_NE BOM_R34_SE BOM_R34_SW BOM_R34_NW BOM_R50_NE BOM_R50_SE BOM_R50_SW BOM_R50_NW BOM_R64_NE BOM_R64_SE BOM_R64_SW BOM_R64_NW BOM_ROCI BOM_POCI BOM_EYE BOM_POS_METHOD BOM_PRES_METHOD NADI_LAT NADI_LON NADI_CAT NADI_WIND NADI_PRES WELLINGTON_LAT WELLINGTON_LON WELLINGTON_WIND WELLINGTON_PRES DS824_LAT DS824_LON DS824_STAGE DS824_WIND DS824_PRES TD9636_LAT TD9636_LON TD9636_STAGE TD9636_WIND TD9636_PRES TD9635_LAT TD9635_LON TD9635_WIND TD9635_PRES TD9635_ROCI NEUMANN_LAT NEUMANN_LON NEUMANN_CLASS NEUMANN_WIND NEUMANN_PRES MLC_LAT MLC_LON MLC_CLASS MLC_WIND MLC_PRES USA_GUST BOM_GUST BOM_GUST_PER REUNION_GUST REUNION_GUST_PER USA_SEAHGT USA_SEARAD_NE USA_SEARAD_SE USA_SEARAD_SW USA_SEARAD_NW STORM_SPEED STORM_DIR
1999071S15087 1999 22 SI MM NOT_NAMED 1999-03-11 18:00:00 TS -14.7000 86.9000 20 1003 reunion main 1964 1964 _____O______O_ -1 -14.7000 86.9000 2 20 1003 1.50000 1.50000 -14.7000 86.9000 TC 25 1003 12 282
1999071S15087 1999 22 SI MM NOT_NAMED 1999-03-11 21:00:00 TS -14.5804 86.3172 main 2001 2001 _____P______P_ -1 -14.5804 86.3172 2 20 1003 -14.5804 86.3172 TC 25 1003 11 281
1999071S15087 1999 22 SI MM NOT_NAMED 1999-03-12 00:00:00 TS -14.5000 85.8000 20 1003 reunion main 2032 2032 _____O______O_ -1 -14.5000 85.8000 2 20 1003 1.50000 1.50000 -14.5000 85.8000 TC 25 1003 9 277
1999071S15087 1999 22 SI MM NOT_NAMED 1999-03-12 03:00:00 TS -14.4723 85.3853 main 2063 2063 _____P______P_ -1 -14.4723 85.3853 2 20 1002 -14.4723 85.3853 TC 25 1002 8 277
1999071S15087 1999 22 SI MM NOT_NAMED 1999-03-12 06:00:00 TS -14.4000 85.0000 20 1002 reunion main 2087 2087 _____O______O_ -1 -14.4000 85.0000 2 20 1002 1.50000 1.50000 -14.4000 85.0000 TC 25 1002 8 290
1999071S15087 1999 22 SI MM NOT_NAMED 1999-03-12 09:00:00 TS -14.1799 84.5649 main 2105 2105 _____P______P_ -1 -14.1799 84.5649 2 20 1002 -14.1799 84.5649 TC 25 1002 10 300
1999071S15087 1999 22 SI MM NOT_NAMED 1999-03-12 12:00:00 TS -13.9000 84.1000 20 1002 reunion main 2126 2126 _____O______O_ -1 -13.9000 84.1000 2 20 1002 1.50000 1.50000 -13.9000 84.1000 TC 25 1002 11 300
1999071S15087 1999 22 SI MM NOT_NAMED 1999-03-12 15:00:00 TS -13.6499 83.6076 main 2148 2148 _____P______P_ -1 -13.6499 83.6076 2 20 1002 -13.6499 83.6076 TC 25 1002 11 297
1999071S15087 1999 22 SI MM NOT_NAMED 1999-03-12 18:00:00 TS -13.4000 83.1000 20 1002 reunion main 2178 2140 _____O______O_ -1 -13.4000 83.1000 2 20 1002 1.50000 1.50000 -13.4000 83.1000 TC 25 1002 11 298
1999071S15087 1999 22 SI MM NOT_NAMED 1999-03-12 21:00:00 TS -13.1274 82.6000 main 2140 2112 _____P______P_ -1 -13.1274 82.6000 2 20 1002 -13.1274 82.6000 TC 25 1002 11 297
1999071S15087 1999 22 SI MM NOT_NAMED 1999-03-13 00:00:00 TS -12.9000 82.1000 20 1002 reunion main 2112 2098 _____O______O_ -1 -12.9000 82.1000 2 20 1002 1.50000 1.50000 -12.9000 82.1000 TC 25 1002 10 291
1999071S15087 1999 22 SI MM NOT_NAMED 1999-03-13 03:00:00 TS -12.7698 81.6226 main 2098 2084 _____P______P_ -1 -12.7698 81.6226 2 20 1001 -12.7698 81.6226 TC 25 1001 10 282
1999071S15087 1999 22 SI MM NOT_NAMED 1999-03-13 06:00:00 TS -12.7000 81.1000 20 1001 reunion main 2084 2072 _____O______O_ -1 -12.7000 81.1000 2 20 1001 1.50000 1.50000 -12.7000 81.1000 TC 25 1001 12 277
1999071S15087 1999 22 SI MM NOT_NAMED 1999-03-13 09:00:00 TS -12.6277 80.4425 main 2072 2072 _____P______P_ -1 -12.6277 80.4425 2 21 1000 -12.6277 80.4425 TC 27 1000 13 275
1999071S15087 1999 22 SI MM NOT_NAMED 1999-03-13 12:00:00 TS -12.6000 79.8000 23 1000 reunion main 2074 2074 _____O______O_ -1 -12.6000 79.8000 2 23 1000 2.00000 2.00000 -12.6000 79.8000 TC 30 1000 11 269
1999071S15087 1999 22 SI MM NOT_NAMED 1999-03-13 15:00:00 TS -12.6423 79.3126 main 2077 2077 _____P______P_ -1 -12.6423 79.3126 2 23 1000 -12.6423 79.3126 TC 30 1000 9 264
1999071S15087 1999 22 SI MM NOT_NAMED 1999-03-13 18:00:00 TS -12.7000 78.9000 23 1000 reunion main 2092 2092 _____O______O_ -1 -12.7000 78.9000 2 23 1000 2.00000 2.00000 -12.7000 78.9000 TC 30 1000 8 264
1999071S15087 1999 22 SI MM NOT_NAMED 1999-03-13 21:00:00 TS -12.7225 78.4775 main 2096 2096 _____P______P_ -1 -12.7225 78.4775 2 24 999 -12.7225 78.4775 TC 30 999 8 270
1999071S15087 1999 22 SI MM NOT_NAMED 1999-03-14 00:00:00 TS -12.7000 78.1000 25 999 reunion main 2102 2094 _____O______O_ -1 -12.7000 78.1000 2 25 999 2.00000 2.00000 -12.7000 78.1000 TC 30 999 7 279
1999071S15087 1999 22 SI MM NOT_NAMED 1999-03-14 03:00:00 TS -12.6149 77.7775 main 2095 2088 _____P______P_ -1 -12.6149 77.7775 2 25 999 -12.6149 77.7775 TC 30 999 6 289
1999071S15087 1999 22 SI MM NOT_NAMED 1999-03-14 06:00:00 TS -12.5000 77.5000 25 999 reunion main 2089 2082 _____O______O_ -1 -12.5000 77.5000 2 25 999 2.00000 2.00000 -12.5000 77.5000 TC 30 999 6 291
1999071S15087 1999 22 SI MM NOT_NAMED 1999-03-14 09:00:00 TS -12.4075 77.2350 main 2084 2075 _____P______P_ -1 -12.4075 77.2350 2 25 999 -12.4075 77.2350 TC 30 999 5 292
1999071S15087 1999 22 SI MM NOT_NAMED 1999-03-14 12:00:00 TS -12.3000 77.0000 25 999 reunion main 2077 2060 _____O______O_ -1 -12.3000 77.0000 2 25 999 2.00000 2.00000 -12.3000 77.0000 TC 30 999 5 301
1999071S15087 1999 22 SI MM NOT_NAMED 1999-03-14 15:00:00 TS -12.1350 76.7775 main 2060 2051 _____P______P_ -1 -12.1350 76.7775 2 24 999 -12.1350 76.7775 TC 30 999 5 308
1999071S15087 1999 22 SI MM NOT_NAMED 1999-03-14 18:00:00 TS -12.0000 76.6000 23 1000 reunion main 2053 2053 _____O______O_ -1 -12.0000 76.6000 2 23 1000 2.00000 2.00000 -12.0000 76.6000 TC 30 1000 3 303
1999071S15087 1999 22 SI MM NOT_NAMED 1999-03-14 21:00:00 TS -11.9624 76.5075 main 2056 2056 _____P______P_ -1 -11.9624 76.5075 2 24 999 -11.9624 76.5075 TC 30 999 2 270
1999071S15087 1999 22 SI MM NOT_NAMED 1999-03-15 00:00:00 TS -12.0000 76.4000 25 999 reunion main 2058 2058 _____O______O_ -1 -12.0000 76.4000 2 25 999 2.00000 2.00000 -12.0000 76.4000 TC 30 999 4 250
1999071S15087 1999 22 SI MM NOT_NAMED 1999-03-15 03:00:00 TS -12.0850 76.1725 main 2074 2074 _____P______P_ -1 -12.0850 76.1725 2 25 999 -12.0850 76.1725 TC 30 999 5 248
1999071S15087 1999 22 SI MM NOT_NAMED 1999-03-15 06:00:00 TS -12.2000 75.9000 25 999 reunion main 2093 2093 _____O______O_ -1 -12.2000 75.9000 2 25 999 2.00000 2.00000 -12.2000 75.9000 TC 30 999 6 247
1999071S15087 1999 22 SI MM NOT_NAMED 1999-03-15 09:00:00 TS -12.3075 75.6425 main 2098 2073 _____P______P_ -1 -12.3075 75.6425 2 25 999 -12.3075 75.6425 TC 30 999 5 249
1999071S15087 1999 22 SI MM NOT_NAMED 1999-03-15 12:00:00 TS -12.4000 75.3778 25 999 reunion main 2073 2054 O____O______O_ jtwc_sh SH291999 -12.4000 75.2000 25 -1 -12.4000 75.4000 2 25 999 2.00000 2.00000 -12.4000 75.4000 TC 30 999 5 254
1999071S15087 1999 22 SI MM NOT_NAMED 1999-03-15 15:00:00 TS -12.4475 75.1525 main 2054 2030 P____P______P_ SH291999 -12.4375 74.9925 25 -1 -12.4500 75.1925 2 25 999 -12.4500 75.1925 TC 30 999 4 257
1999071S15087 1999 22 SI MM NOT_NAMED 1999-03-15 18:00:00 TS -12.5000 74.9455 25 999 reunion main 2020 2005 O____O______O_ jtwc_sh SH291999 -12.5000 74.8000 25 -1 -12.5000 75.0000 2 25 999 2.00000 2.00000 -12.5000 75.0000 TC 30 999 4 251
1999071S15087 1999 22 SI MM NOT_NAMED 1999-03-15 21:00:00 TS -12.5900 74.7400 main 1996 1981 P____P______P_ SH291999 -12.6000 74.6350 25 -1 -12.5850 74.7925 2 27 997 -12.5850 74.7925 TC 32 997 4 242
1999071S15087 1999 22 SI MM NOT_NAMED 1999-03-16 00:00:00 TS -12.7000 74.5667 30 996 reunion main 1981 1956 O____O______O_ jtwc_sh SH291999 -12.7000 74.5000 25 -1 -12.7000 74.6000 2 30 996 2.50000 2.50000 -12.7000 74.6000 TC 35 996 4 235
1999071S15087 1999 22 SI MM NOT_NAMED 1999-03-16 03:00:00 TS -12.8117 74.4158 main 1956 1942 P____P______P_ SH291999 -12.7500 74.3925 25 -1 -12.8425 74.4275 2 30 996 -12.8425 74.4275 TC 35 996 4 228
1999071S15087 1999 22 SI MM NOT_NAMED 1999-03-16 06:00:00 TS -12.9333 74.3000 30 996 reunion main 1942 1922 O____O______O_ jtwc_sh SH291999 -12.8000 74.3000 25 -1 -13.0000 74.3000 2 30 996 2.50000 2.50000 -13.0000 74.3000 TC 35 996 3 215
1999071S15087 1999 22 SI MM NOT_NAMED 1999-03-16 09:00:00 TS -13.0742 74.2283 main 1922 1917 P____P______P_ SH291999 -12.8925 74.2000 27 -1 -13.1650 74.2425 2 30 996 -13.1650 74.2425 TC 35 996 3 206
1999071S15087 1999 22 SI MM NOT_NAMED 1999-03-16 12:00:00 TS -13.2000 74.1667 30 996 reunion main 1917 1902 O____O______O_ jtwc_sh SH291999 -13.0000 74.1000 30 -1 -13.3000 74.2000 2 30 996 2.50000 2.50000 -13.3000 74.2000 TC 35 996 3 219
1999071S15087 1999 22 SI MM NOT_NAMED 1999-03-16 15:00:00 TS -13.2717 74.0642 main 1902 1892 P____P______P_ SH291999 -13.1000 73.9925 30 -1 -13.3575 74.1000 2 30 996 -13.3575 74.1000 TC 35 996 2 235
1999071S15087 1999 22 SI MM NOT_NAMED 1999-03-16 18:00:00 TS -13.3333 73.9667 30 996 reunion main 1892 1878 O____O______O_ jtwc_sh SH291999 -13.2000 73.9000 30 -1 -13.4000 74.0000 2 30 996 2.50000 2.50000 -13.4000 74.0000 TC 35 996 2 222
1999071S15087 1999 22 SI MM NOT_NAMED 1999-03-16 21:00:00 TS -13.4383 73.9117 main 1878 1873 P____P______P_ SH291999 -13.3000 73.8500 32 -1 -13.5075 73.9425 2 30 995 -13.5075 73.9425 TC 37 995 2 207
1999071S15087 1999 22 SI MM NOT_NAMED 1999-03-17 00:00:00 TS -13.5333 73.8667 30 995 reunion main 1873 1858 O____O______O_ jtwc_sh SH291999 -13.4000 73.8000 35 0 -13.6000 73.9000 2 30 995 2.50000 2.50000 -13.6000 73.9000 TC 40 995 2 217
1999071S15087 1999 22 SI MM NOT_NAMED 1999-03-17 03:00:00 TS -13.5691 73.8150 main 1858 1848 P____P______P_ SH291999 -13.4925 73.7299 35 0 -13.6075 73.8575 2 30 995 -13.6075 73.8575 TC 40 995 1 243
1999071S15087 1999 22 SI MM NOT_NAMED 1999-03-17 06:00:00 TS -13.6000 73.7333 30 995 reunion main 1848 1834 O____O______O_ jtwc_sh SH291999 -13.6000 73.6000 35 0 -13.6000 73.8000 2 30 995 2.50000 2.50000 -13.6000 73.8000 TC 40 995 2 244
1999071S15087 1999 22 SI MM NOT_NAMED 1999-03-17 09:00:00 TS -13.6759 73.5909 main 1834 1809 P____P______P_ SH291999 -13.7426 73.3426 35 0 -13.6425 73.7150 2 30 995 -13.6425 73.7150 TC 40 995 3 240
1999071S15087 1999 22 SI MM NOT_NAMED 1999-03-17 12:00:00 TS -13.7667 73.4333 30 995 reunion main 1809 1800 O____O______O_ jtwc_sh SH291999 -13.9000 73.1000 35 0 -13.7000 73.6000 2 30 995 2.50000 2.50000 -13.7000 73.6000 TC 40 995 3 239
1999071S15087 1999 22 SI MM NOT_NAMED 1999-03-17 15:00:00 TS -13.8425 73.3016 main 1800 1785 P____P______P_ SH291999 -14.0575 73.0050 35 0 -13.7350 73.4500 2 30 995 -13.7350 73.4500 TC 40 995 3 234
1999071S15087 1999 22 SI MM NOT_NAMED 1999-03-17 18:00:00 TS -13.9333 73.2000 30 995 reunion main 1785 1770 O____O______O_ jtwc_sh SH291999 -14.2000 73.0000 35 0 -13.8000 73.3000 2 30 995 2.50000 2.50000 -13.8000 73.3000 TC 40 995 3 219
1999071S15087 1999 22 SI MM NOT_NAMED 1999-03-17 21:00:00 TS -14.0542 73.1225 main 1766 1761 P____P______P_ SH291999 -14.3075 73.0275 35 0 -13.9275 73.1700 2 30 995 -13.9275 73.1700 TC 40 995 3 199
1999071S15087 1999 22 SI MM NOT_NAMED 1999-03-18 00:00:00 TS -14.2000 73.1000 30 995 reunion main 1761 1751 O____O______O_ jtwc_sh SH291999 -14.4000 73.1000 35 0 -14.1000 73.1000 2 30 995 2.50000 2.50000 -14.1000 73.1000 TC 40 995 3 0
1999071S15087 1999 22 SI MM NOT_NAMED 1999-03-18 03:00:00 TS -14.3667 73.1491 main 1751 1751 P____P______P_ SH291999 -14.5000 73.1775 32 -1 -14.3000 73.1349 2 30 995 -14.3000 73.1349 TC 37 995 4 158
1999071S15087 1999 22 SI MM NOT_NAMED 1999-03-18 06:00:00 TS -14.5333 73.2333 30 996 reunion main 1757 1752 O____O______O_ jtwc_sh SH291999 -14.6000 73.3000 30 -1 -14.5000 73.2000 2 30 996 2.00000 2.50000 -14.5000 73.2000 TC 35 996 3 154
1999071S15087 1999 22 SI MM NOT_NAMED 1999-03-18 09:00:00 TS -14.6642 73.2975 main 1758 1753 P____P______P_ SH291999 -14.6925 73.4775 30 -1 -14.6500 73.2075 2 29 996 -14.6500 73.2075 TC 35 996 3 154
1999071S15087 1999 22 SI MM NOT_NAMED 1999-03-18 12:00:00 TS -14.8000 73.3667 28 997 reunion main 1763 1759 O____O______O_ jtwc_sh SH291999 -14.8000 73.7000 30 -1 -14.8000 73.2000 2 28 997 2.00000 2.50000 -14.8000 73.2000 TC 35 997 3 152
1999071S15087 1999 22 SI MM NOT_NAMED 1999-03-18 15:00:00 TS -14.9708 73.4649 main 1765 1756 P____P______P_ SH291999 -14.9426 73.9649 30 -1 -14.9850 73.2149 2 26 998 -14.9850 73.2149 TC 32 998 4 156
1999071S15087 1999 22 SI MM NOT_NAMED 1999-03-18 18:00:00 TS -15.1667 73.5333 25 999 reunion main 1756 1748 O____O______O_ jtwc_sh SH291999 -15.1000 74.2000 30 -1 -15.2000 73.2000 2 25 999 2.00000 2.00000 -15.2000 73.2000 TC 30 999 4 171
1999071S15087 1999 22 SI MM NOT_NAMED 1999-03-18 21:00:00 TS -15.3958 73.5350 main 1748 1741 P____P______P_ SH291999 -15.2425 74.3300 30 -1 -15.4725 73.1375 2 25 999 -15.4725 73.1375 TC 30 999 4 189
1999071S15087 1999 22 SI MM NOT_NAMED 1999-03-19 00:00:00 TS -15.6000 73.4667 25 999 reunion main 1741 1727 O____O______O_ jtwc_sh SH291999 -15.4000 74.4000 30 -1 -15.7000 73.0000 2 25 999 2.00000 2.00000 -15.7000 73.0000 TC 30 999 4 213
1999071S15087 1999 22 SI MM NOT_NAMED 1999-03-19 03:00:00 TS -15.6900 73.3390 main 1717 1693 P____P______P_ SH291999 -15.6000 74.4725 30 -1 -15.7350 72.7723 2 25 999 -15.7350 72.7723 TC 30 999 5 244
1999071S15087 1999 22 SI MM NOT_NAMED 1999-03-19 06:00:00 TS -15.8000 73.0455 25 999 reunion main 1683 1641 O____O______O_ jtwc_sh SH291999 -15.8000 74.5000 30 -1 -15.8000 72.5000 2 25 999 2.00000 2.00000 -15.8000 72.5000 TC 30 999 7 238
1999071S15087 1999 22 SI MM NOT_NAMED 1999-03-19 09:00:00 TS -16.0705 72.6995 main 1641 1590 P____P______P_ SH291999 -15.9625 74.4675 30 -1 -16.0975 72.2575 2 25 999 -16.0975 72.2575 TC 30 999 10 229
1999071S15087 1999 22 SI MM NOT_NAMED 1999-03-19 12:00:00 TS -16.4556 72.2667 25 999 reunion main 1587 1512 O____O______O_ jtwc_sh SH291999 -16.1000 74.4000 30 -1 -16.5000 72.0000 2 25 999 1.50000 2.00000 -16.5000 72.0000 TC 30 999 13 228
1999071S15087 1999 22 SI MM NOT_NAMED 1999-03-19 15:00:00 TS -16.9074 71.7150 main 1512 1469 _____P______P_ SH291999 -1 -16.9074 71.7150 2 25 999 -16.9074 71.7150 TC 30 999 12 224
1999071S15087 1999 22 SI MM NOT_NAMED 1999-03-19 18:00:00 TS -17.3000 71.4000 25 999 reunion main 1469 1430 _____O______O_ -1 -17.3000 71.4000 2 25 999 1.50000 2.00000 -17.3000 71.4000 TC 30 999 10 222
1999071S15087 1999 22 SI MM NOT_NAMED 1999-03-19 21:00:00 TS -17.6301 71.0350 main 1420 1381 _____P______P_ -1 -17.6301 71.0350 2 24 999 -17.6301 71.0350 TC 30 999 9 228
1999071S15087 1999 22 SI MM NOT_NAMED 1999-03-20 00:00:00 TS -17.9000 70.7000 23 1000 reunion main 1381 1355 _____O______O_ -1 -17.9000 70.7000 2 23 1000 1.50000 2.00000 -17.9000 70.7000 TC 30 1000 7 228
1999071S15087 1999 22 SI MM NOT_NAMED 1999-03-20 03:00:00 TS -18.1149 70.4698 main 1355 1330 _____P______P_ -1 -18.1149 70.4698 2 21 1001 -18.1149 70.4698 TC 27 1001 6 223
1999071S15087 1999 22 SI MM NOT_NAMED 1999-03-20 06:00:00 TS -18.3000 70.3000 20 1002 reunion main 1330 1305 _____O______O_ -1 -18.3000 70.3000 2 20 1002 1.50000 1.50000 -18.3000 70.3000 TC 25 1002 5 222
1999071S15087 1999 22 SI MM NOT_NAMED 1999-03-20 09:00:00 TS -18.4925 70.1125 main 1305 1290 _____P______P_ -1 -18.4925 70.1125 2 20 1002 -18.4925 70.1125 TC 25 1002 5 215
1999071S15087 1999 22 SI MM NOT_NAMED 1999-03-20 12:00:00 TS -18.7000 70.0000 20 1002 reunion main 1290 1287 _____O______O_ -1 -18.7000 70.0000 2 20 1002 1.50000 1.50000 -18.7000 70.0000 TC 25 1002 4 192
1999071S15087 1999 22 SI MM NOT_NAMED 1999-03-20 15:00:00 TS -18.9275 70.0199 main 1287 1285 _____P______P_ -1 -18.9275 70.0199 2 1002 -18.9275 70.0199 TC 25 1002 5 169
1999071S15087 1999 22 SI MM NOT_NAMED 1999-03-20 18:00:00 TS -19.2000 70.1000 1003 reunion main 1292 1288 _____O______O_ -1 -19.2000 70.1000 6 1003 9.90000 -19.2000 70.1000 TC 25 1003 6 168
1999071S15087 1999 22 SI MM NOT_NAMED 1999-03-20 21:00:00 TS -19.5325 70.1600 main 1299 1295 _____P______P_ -1 -19.5325 70.1600 6 1003 -19.5325 70.1600 TC 22 1003 7 172
1999071S15087 1999 22 SI MM NOT_NAMED 1999-03-21 00:00:00 TS -19.9000 70.2000 1004 reunion main 1295 _____O______O_ -1 -19.9000 70.2000 6 1004 9.90000 -19.9000 70.2000 TC 20 1004 7 175

IBTrACS Databaseについて

本データベースは、米国NOAAが公開する1842年以降の世界の熱帯低気圧のベストトラックデータアーカイブInternational Best Track Archive for Climate Stewardship (IBTrACS)を、ウェブで閲覧しやすい形式に変換したものです。

最終更新日:2021-10-21